sensor_id;sensor_type;location;lat;lon;timestamp;temperature;humidity
3794;DHT22;1912;51.358;12.282;2024-01-27T04:52:25;3.20;1.00
3794;DHT22;1912;51.358;12.282;2024-01-27T04:54:51;3.10;1.00
3794;DHT22;1912;51.358;12.282;2024-01-27T04:57:17;3.10;1.00
3794;DHT22;1912;51.358;12.282;2024-01-27T04:59:42;3.10;1.00
3794;DHT22;1912;51.358;12.282;2024-01-27T05:02:08;3.10;1.00
3794;DHT22;1912;51.358;12.282;2024-01-27T05:04:34;3.00;1.00
3794;DHT22;1912;51.358;12.282;2024-01-27T05:06:59;3.00;1.00
3794;DHT22;1912;51.358;12.282;2024-01-27T05:09:25;3.00;1.00
3794;DHT22;1912;51.358;12.282;2024-01-27T05:11:51;3.10;1.00
3794;DHT22;1912;51.358;12.282;2024-01-27T05:14:18;3.00;1.00
3794;DHT22;1912;51.358;12.282;2024-01-27T05:16:43;3.00;1.00
3794;DHT22;1912;51.358;12.282;2024-01-27T05:19:10;3.00;1.00
3794;DHT22;1912;51.358;12.282;2024-01-27T05:21:36;3.00;1.00
3794;DHT22;1912;51.358;12.282;2024-01-27T05:24:01;3.00;1.00
3794;DHT22;1912;51.358;12.282;2024-01-27T05:26:27;3.00;1.00
3794;DHT22;1912;51.358;12.282;2024-01-27T05:28:53;3.00;1.00
3794;DHT22;1912;51.358;12.282;2024-01-27T05:31:18;3.10;1.00
3794;DHT22;1912;51.358;12.282;2024-01-27T05:33:44;3.10;1.00
3794;DHT22;1912;51.358;12.282;2024-01-27T05:36:10;3.20;1.00
3794;DHT22;1912;51.358;12.282;2024-01-27T05:38:35;3.20;1.00
3794;DHT22;1912;51.358;12.282;2024-01-27T05:41:01;3.20;1.00
3794;DHT22;1912;51.358;12.282;2024-01-27T05:43:27;3.20;1.00
3794;DHT22;1912;51.358;12.282;2024-01-27T05:45:53;3.30;1.00
3794;DHT22;1912;51.358;12.282;2024-01-27T05:48:19;3.30;1.00
3794;DHT22;1912;51.358;12.282;2024-01-27T05:50:55;3.40;1.00
3794;DHT22;1912;51.358;12.282;2024-01-27T05:53:24;3.40;1.00
3794;DHT22;1912;51.358;12.282;2024-01-27T05:55:50;3.50;1.00
3794;DHT22;1912;51.358;12.282;2024-01-27T05:58:15;3.50;1.00
3794;DHT22;1912;51.358;12.282;2024-01-27T06:00:43;3.50;1.00
3794;DHT22;1912;51.358;12.282;2024-01-27T06:03:12;3.40;1.00
3794;DHT22;1912;51.358;12.282;2024-01-27T06:05:37;3.50;1.00
3794;DHT22;1912;51.358;12.282;2024-01-27T06:08:04;3.40;1.00
3794;DHT22;1912;51.358;12.282;2024-01-27T06:10:30;3.40;1.00
3794;DHT22;1912;51.358;12.282;2024-01-27T06:12:57;3.30;1.00
3794;DHT22;1912;51.358;12.282;2024-01-27T06:15:22;3.30;1.00
3794;DHT22;1912;51.358;12.282;2024-01-27T06:17:48;3.30;1.00
3794;DHT22;1912;51.358;12.282;2024-01-27T06:20:14;3.30;1.00
3794;DHT22;1912;51.358;12.282;2024-01-27T06:22:41;3.30;1.00
3794;DHT22;1912;51.358;12.282;2024-01-27T06:25:08;3.20;1.00
3794;DHT22;1912;51.358;12.282;2024-01-27T06:27:34;3.20;1.00
3794;DHT22;1912;51.358;12.282;2024-01-27T06:30:00;3.20;1.00
3794;DHT22;1912;51.358;12.282;2024-01-27T06:32:25;3.20;1.00
3794;DHT22;1912;51.358;12.282;2024-01-27T06:34:51;3.10;1.00
3794;DHT22;1912;51.358;12.282;2024-01-27T06:37:16;3.10;1.00
3794;DHT22;1912;51.358;12.282;2024-01-27T06:39:42;3.00;1.00
3794;DHT22;1912;51.358;12.282;2024-01-27T06:42:08;3.00;1.00
3794;DHT22;1912;51.358;12.282;2024-01-27T06:44:33;3.00;1.00
3794;DHT22;1912;51.358;12.282;2024-01-27T06:46:59;2.90;1.00
3794;DHT22;1912;51.358;12.282;2024-01-27T06:49:25;2.90;1.00
3794;DHT22;1912;51.358;12.282;2024-01-27T06:51:50;3.00;1.00
3794;DHT22;1912;51.358;12.282;2024-01-27T06:54:16;2.90;1.00
3794;DHT22;1912;51.358;12.282;2024-01-27T06:56:42;2.90;1.00
3794;DHT22;1912;51.358;12.282;2024-01-27T06:59:08;2.90;1.00
3794;DHT22;1912;51.358;12.282;2024-01-27T07:01:33;2.90;1.00
3794;DHT22;1912;51.358;12.282;2024-01-27T07:03:59;2.90;1.00
3794;DHT22;1912;51.358;12.282;2024-01-27T07:06:24;2.90;1.00
3794;DHT22;1912;51.358;12.282;2024-01-27T07:08:50;3.00;1.00
3794;DHT22;1912;51.358;12.282;2024-01-27T07:11:16;3.00;1.00
3794;DHT22;1912;51.358;12.282;2024-01-27T07:13:41;3.10;1.00
3794;DHT22;1912;51.358;12.282;2024-01-27T07:16:07;3.00;1.00
3794;DHT22;1912;51.358;12.282;2024-01-27T07:18:33;3.10;1.00
3794;DHT22;1912;51.358;12.282;2024-01-27T07:21:00;3.10;1.00
3794;DHT22;1912;51.358;12.282;2024-01-27T07:23:27;3.10;1.00
3794;DHT22;1912;51.358;12.282;2024-01-27T07:25:53;3.20;1.00
3794;DHT22;1912;51.358;12.282;2024-01-27T07:28:19;3.20;1.00
3794;DHT22;1912;51.358;12.282;2024-01-27T07:30:45;3.20;1.00
3794;DHT22;1912;51.358;12.282;2024-01-27T07:33:10;3.20;1.00
3794;DHT22;1912;51.358;12.282;2024-01-27T07:35:36;3.20;1.00
3794;DHT22;1912;51.358;12.282;2024-01-27T07:38:02;3.20;1.00
3794;DHT22;1912;51.358;12.282;2024-01-27T07:40:27;3.30;1.00
3794;DHT22;1912;51.358;12.282;2024-01-27T07:42:53;3.20;1.00
3794;DHT22;1912;51.358;12.282;2024-01-27T07:45:19;3.20;1.00
3794;DHT22;1912;51.358;12.282;2024-01-27T07:47:45;3.20;1.00
3794;DHT22;1912;51.358;12.282;2024-01-27T07:50:11;3.30;1.00
3794;DHT22;1912;51.358;12.282;2024-01-27T07:52:36;3.20;1.00
3794;DHT22;1912;51.358;12.282;2024-01-27T07:55:02;3.20;1.00
3794;DHT22;1912;51.358;12.282;2024-01-27T07:57:28;3.20;1.00
3794;DHT22;1912;51.358;12.282;2024-01-27T07:59:54;3.30;1.00
3794;DHT22;1912;51.358;12.282;2024-01-27T08:02:19;3.30;1.00
3794;DHT22;1912;51.358;12.282;2024-01-27T08:04:45;3.30;1.00
3794;DHT22;1912;51.358;12.282;2024-01-27T08:07:11;3.30;1.00
3794;DHT22;1912;51.358;12.282;2024-01-27T08:09:37;3.30;1.00
3794;DHT22;1912;51.358;12.282;2024-01-27T08:12:03;3.30;1.00
3794;DHT22;1912;51.358;12.282;2024-01-27T08:14:29;3.40;1.00
3794;DHT22;1912;51.358;12.282;2024-01-27T08:16:58;3.60;1.00
3794;DHT22;1912;51.358;12.282;2024-01-27T08:19:24;3.70;1.00
3794;DHT22;1912;51.358;12.282;2024-01-27T08:21:50;3.80;1.00
3794;DHT22;1912;51.358;12.282;2024-01-27T08:24:15;3.90;1.00
3794;DHT22;1912;51.358;12.282;2024-01-27T08:26:41;4.00;1.00
3794;DHT22;1912;51.358;12.282;2024-01-27T08:29:08;4.20;1.00
3794;DHT22;1912;51.358;12.282;2024-01-27T08:31:34;4.20;1.00
3794;DHT22;1912;51.358;12.282;2024-01-27T08:34:00;4.30;1.00
3794;DHT22;1912;51.358;12.282;2024-01-27T08:36:25;4.40;1.00
3794;DHT22;1912;51.358;12.282;2024-01-27T08:38:51;4.60;1.00
3794;DHT22;1912;51.358;12.282;2024-01-27T08:41:17;4.70;1.00
3794;DHT22;1912;51.358;12.282;2024-01-27T08:43:42;4.70;1.00
3794;DHT22;1912;51.358;12.282;2024-01-27T08:46:08;4.80;1.00
3794;DHT22;1912;51.358;12.282;2024-01-27T08:48:36;4.90;1.00
3794;DHT22;1912;51.358;12.282;2024-01-27T08:51:02;5.10;1.00
3794;DHT22;1912;51.358;12.282;2024-01-27T08:53:28;5.20;1.00
3794;DHT22;1912;51.358;12.282;2024-01-27T08:55:54;5.20;1.00
3794;DHT22;1912;51.358;12.282;2024-01-27T08:58:20;5.20;1.00
3794;DHT22;1912;51.358;12.282;2024-01-27T09:00:45;5.20;1.00
3794;DHT22;1912;51.358;12.282;2024-01-27T09:03:11;5.30;1.00
3794;DHT22;1912;51.358;12.282;2024-01-27T09:05:39;5.30;1.00
3794;DHT22;1912;51.358;12.282;2024-01-27T09:08:07;5.30;1.00
3794;DHT22;1912;51.358;12.282;2024-01-27T09:10:33;5.40;1.00
3794;DHT22;1912;51.358;12.282;2024-01-27T09:12:58;5.40;1.00
3794;DHT22;1912;51.358;12.282;2024-01-27T09:15:24;5.40;1.00
3794;DHT22;1912;51.358;12.282;2024-01-27T09:17:50;5.40;1.00
3794;DHT22;1912;51.358;12.282;2024-01-27T09:20:15;5.40;1.00
3794;DHT22;1912;51.358;12.282;2024-01-27T09:22:41;5.50;1.00
3794;DHT22;1912;51.358;12.282;2024-01-27T09:25:07;5.40;1.00
3794;DHT22;1912;51.358;12.282;2024-01-27T09:27:33;5.40;1.00
3794;DHT22;1912;51.358;12.282;2024-01-27T09:29:59;5.60;1.00
3794;DHT22;1912;51.358;12.282;2024-01-27T09:32:25;5.60;1.00
3794;DHT22;1912;51.358;12.282;2024-01-27T09:34:50;5.70;1.00
3794;DHT22;1912;51.358;12.282;2024-01-27T09:37:19;5.80;1.00
3794;DHT22;1912;51.358;12.282;2024-01-27T09:39:44;5.70;1.00
3794;DHT22;1912;51.358;12.282;2024-01-27T09:42:13;5.70;1.00
3794;DHT22;1912;51.358;12.282;2024-01-27T09:44:44;5.70;1.00
3794;DHT22;1912;51.358;12.282;2024-01-27T09:47:11;5.70;1.00
3794;DHT22;1912;51.358;12.282;2024-01-27T09:49:39;5.80;1.00
3794;DHT22;1912;51.358;12.282;2024-01-27T09:52:06;5.80;1.00
3794;DHT22;1912;51.358;12.282;2024-01-27T09:54:34;5.80;1.00
3794;DHT22;1912;51.358;12.282;2024-01-27T09:57:00;5.70;1.00
3794;DHT22;1912;51.358;12.282;2024-01-27T09:59:26;5.80;1.00
3794;DHT22;1912;51.358;12.282;2024-01-27T10:01:53;5.90;1.00
3794;DHT22;1912;51.358;12.282;2024-01-27T10:04:20;5.90;1.00
3794;DHT22;1912;51.358;12.282;2024-01-27T10:06:47;5.90;1.00
3794;DHT22;1912;51.358;12.282;2024-01-27T10:09:14;5.90;1.00
3794;DHT22;1912;51.358;12.282;2024-01-27T10:11:45;5.80;1.00
3794;DHT22;1912;51.358;12.282;2024-01-27T10:14:11;5.80;1.00
3794;DHT22;1912;51.358;12.282;2024-01-27T10:16:44;5.90;1.00
3794;DHT22;1912;51.358;12.282;2024-01-27T10:19:18;5.80;1.00
3794;DHT22;1912;51.358;12.282;2024-01-27T10:21:45;5.80;1.00
3794;DHT22;1912;51.358;12.282;2024-01-27T10:24:11;5.90;1.00
3794;DHT22;1912;51.358;12.282;2024-01-27T10:26:37;5.90;1.00
3794;DHT22;1912;51.358;12.282;2024-01-27T10:29:03;5.80;1.00
3794;DHT22;1912;51.358;12.282;2024-01-27T10:31:29;5.90;1.00
3794;DHT22;1912;51.358;12.282;2024-01-27T10:33:57;5.90;1.00
3794;DHT22;1912;51.358;12.282;2024-01-27T10:36:26;5.90;1.00
3794;DHT22;1912;51.358;12.282;2024-01-27T10:38:51;6.10;1.00
3794;DHT22;1912;51.358;12.282;2024-01-27T10:41:26;6.00;1.00
3794;DHT22;1912;51.358;12.282;2024-01-27T10:43:54;6.00;1.00
3794;DHT22;1912;51.358;12.282;2024-01-27T10:46:22;6.10;1.00
3794;DHT22;1912;51.358;12.282;2024-01-27T10:48:51;6.10;1.00
3794;DHT22;1912;51.358;12.282;2024-01-27T10:51:30;6.20;1.00
3794;DHT22;1912;51.358;12.282;2024-01-27T10:54:02;6.20;1.00
3794;DHT22;1912;51.358;12.282;2024-01-27T10:56:30;6.20;1.00
3794;DHT22;1912;51.358;12.282;2024-01-27T10:58:57;6.20;1.00
3794;DHT22;1912;51.358;12.282;2024-01-27T11:01:24;6.20;1.00
3794;DHT22;1912;51.358;12.282;2024-01-27T11:03:52;6.30;1.00
3794;DHT22;1912;51.358;12.282;2024-01-27T11:06:22;6.40;1.00
3794;DHT22;1912;51.358;12.282;2024-01-27T11:08:49;6.30;1.00
3794;DHT22;1912;51.358;12.282;2024-01-27T11:11:16;6.30;1.00
3794;DHT22;1912;51.358;12.282;2024-01-27T11:13:43;6.30;1.00
3794;DHT22;1912;51.358;12.282;2024-01-27T11:16:18;6.40;1.00
3794;DHT22;1912;51.358;12.282;2024-01-27T11:18:44;6.50;1.00
3794;DHT22;1912;51.358;12.282;2024-01-27T11:21:17;6.60;1.00
3794;DHT22;1912;51.358;12.282;2024-01-27T11:23:43;6.50;1.00
3794;DHT22;1912;51.358;12.282;2024-01-27T11:26:10;6.50;1.00
3794;DHT22;1912;51.358;12.282;2024-01-27T11:28:39;6.50;1.00
3794;DHT22;1912;51.358;12.282;2024-01-27T11:31:07;6.40;1.00
3794;DHT22;1912;51.358;12.282;2024-01-27T11:33:33;6.40;1.00
3794;DHT22;1912;51.358;12.282;2024-01-27T11:36:05;6.50;1.00
3794;DHT22;1912;51.358;12.282;2024-01-27T11:38:32;6.50;1.00
3794;DHT22;1912;51.358;12.282;2024-01-27T11:41:00;6.60;1.00
3794;DHT22;1912;51.358;12.282;2024-01-27T11:43:27;6.70;1.00
3794;DHT22;1912;51.358;12.282;2024-01-27T11:45:59;6.70;1.00
3794;DHT22;1912;51.358;12.282;2024-01-27T11:48:26;6.70;1.00
3794;DHT22;1912;51.358;12.282;2024-01-27T11:51:10;6.70;1.00
3794;DHT22;1912;51.358;12.282;2024-01-27T11:53:37;6.70;1.00
3794;DHT22;1912;51.358;12.282;2024-01-27T11:56:03;6.80;1.00
3794;DHT22;1912;51.358;12.282;2024-01-27T11:58:30;6.80;1.00
3794;DHT22;1912;51.358;12.282;2024-01-27T12:00:56;6.80;1.00
3794;DHT22;1912;51.358;12.282;2024-01-27T12:03:23;6.90;1.00
3794;DHT22;1912;51.358;12.282;2024-01-27T12:05:49;7.00;1.00
3794;DHT22;1912;51.358;12.282;2024-01-27T12:08:16;7.10;1.00
3794;DHT22;1912;51.358;12.282;2024-01-27T12:10:42;7.10;1.00
3794;DHT22;1912;51.358;12.282;2024-01-27T12:13:08;7.10;1.00
3794;DHT22;1912;51.358;12.282;2024-01-27T12:15:34;7.20;1.00
3794;DHT22;1912;51.358;12.282;2024-01-27T12:18:00;7.10;1.00
3794;DHT22;1912;51.358;12.282;2024-01-27T12:20:26;7.20;1.00
3794;DHT22;1912;51.358;12.282;2024-01-27T12:23:03;7.20;1.00
3794;DHT22;1912;51.358;12.282;2024-01-27T12:25:28;7.30;1.00
3794;DHT22;1912;51.358;12.282;2024-01-27T12:27:54;7.30;1.00
3794;DHT22;1912;51.358;12.282;2024-01-27T12:30:21;7.20;1.00
3794;DHT22;1912;51.358;12.282;2024-01-27T12:32:47;7.30;1.00
3794;DHT22;1912;51.358;12.282;2024-01-27T12:35:13;7.40;1.00
3794;DHT22;1912;51.358;12.282;2024-01-27T12:37:39;7.50;1.00
3794;DHT22;1912;51.358;12.282;2024-01-27T12:40:23;7.60;1.00
3794;DHT22;1912;51.358;12.282;2024-01-27T12:42:49;7.60;1.00
3794;DHT22;1912;51.358;12.282;2024-01-27T12:45:15;7.40;1.00
3794;DHT22;1912;51.358;12.282;2024-01-27T12:47:41;7.50;1.00
3794;DHT22;1912;51.358;12.282;2024-01-27T12:50:07;7.50;1.00
3794;DHT22;1912;51.358;12.282;2024-01-27T12:52:33;7.50;1.00
3794;DHT22;1912;51.358;12.282;2024-01-27T12:54:59;7.50;1.00
3794;DHT22;1912;51.358;12.282;2024-01-27T12:57:24;7.60;1.00
3794;DHT22;1912;51.358;12.282;2024-01-27T12:59:50;7.60;1.00
3794;DHT22;1912;51.358;12.282;2024-01-27T13:02:16;7.70;1.00
3794;DHT22;1912;51.358;12.282;2024-01-27T13:04:42;7.70;1.00
3794;DHT22;1912;51.358;12.282;2024-01-27T13:07:08;7.70;1.00
3794;DHT22;1912;51.358;12.282;2024-01-27T13:09:35;7.70;1.00
3794;DHT22;1912;51.358;12.282;2024-01-27T13:12:02;7.60;1.00
3794;DHT22;1912;51.358;12.282;2024-01-27T13:14:28;7.60;1.00
3794;DHT22;1912;51.358;12.282;2024-01-27T13:16:54;7.80;1.00
3794;DHT22;1912;51.358;12.282;2024-01-27T13:19:21;7.70;1.00
3794;DHT22;1912;51.358;12.282;2024-01-27T13:21:46;7.70;1.00
3794;DHT22;1912;51.358;12.282;2024-01-27T13:24:12;7.70;1.00
3794;DHT22;1912;51.358;12.282;2024-01-27T13:26:38;7.80;1.00
3794;DHT22;1912;51.358;12.282;2024-01-27T13:29:07;7.90;1.00
3794;DHT22;1912;51.358;12.282;2024-01-27T13:31:34;8.00;1.00
3794;DHT22;1912;51.358;12.282;2024-01-27T13:34:00;8.00;1.00
3794;DHT22;1912;51.358;12.282;2024-01-27T13:36:26;7.90;1.00
3794;DHT22;1912;51.358;12.282;2024-01-27T13:38:52;8.00;1.00
3794;DHT22;1912;51.358;12.282;2024-01-27T13:41:18;8.00;1.00
3794;DHT22;1912;51.358;12.282;2024-01-27T13:43:44;8.10;1.00
3794;DHT22;1912;51.358;12.282;2024-01-27T13:46:10;8.00;1.00
3794;DHT22;1912;51.358;12.282;2024-01-27T13:48:36;8.00;1.00
3794;DHT22;1912;51.358;12.282;2024-01-27T13:51:02;8.10;1.00
3794;DHT22;1912;51.358;12.282;2024-01-27T13:53:28;8.10;1.00
3794;DHT22;1912;51.358;12.282;2024-01-27T13:55:54;8.10;1.00
3794;DHT22;1912;51.358;12.282;2024-01-27T13:58:20;8.30;1.00
3794;DHT22;1912;51.358;12.282;2024-01-27T14:00:47;8.20;1.00
3794;DHT22;1912;51.358;12.282;2024-01-27T14:03:13;8.10;1.00
3794;DHT22;1912;51.358;12.282;2024-01-27T14:05:38;8.10;1.00
3794;DHT22;1912;51.358;12.282;2024-01-27T14:08:05;8.20;1.00
3794;DHT22;1912;51.358;12.282;2024-01-27T14:10:32;8.00;1.00
3794;DHT22;1912;51.358;12.282;2024-01-27T14:12:58;8.10;1.00
3794;DHT22;1912;51.358;12.282;2024-01-27T14:15:23;8.10;1.00
3794;DHT22;1912;51.358;12.282;2024-01-27T14:17:49;8.20;1.00
3794;DHT22;1912;51.358;12.282;2024-01-27T14:20:15;8.10;1.00
3794;DHT22;1912;51.358;12.282;2024-01-27T14:22:41;8.20;1.00
3794;DHT22;1912;51.358;12.282;2024-01-27T14:25:07;8.10;1.00
3794;DHT22;1912;51.358;12.282;2024-01-27T14:27:33;8.00;1.00
3794;DHT22;1912;51.358;12.282;2024-01-27T14:30:00;8.00;1.00
3794;DHT22;1912;51.358;12.282;2024-01-27T14:32:26;7.90;1.00
3794;DHT22;1912;51.358;12.282;2024-01-27T14:34:52;7.90;1.00
3794;DHT22;1912;51.358;12.282;2024-01-27T14:37:18;7.90;1.00
3794;DHT22;1912;51.358;12.282;2024-01-27T14:39:47;7.70;1.00
3794;DHT22;1912;51.358;12.282;2024-01-27T14:42:13;7.70;1.00
3794;DHT22;1912;51.358;12.282;2024-01-27T14:44:40;7.60;1.00
3794;DHT22;1912;51.358;12.282;2024-01-27T14:47:08;7.50;1.00
3794;DHT22;1912;51.358;12.282;2024-01-27T14:49:34;7.50;1.00
3794;DHT22;1912;51.358;12.282;2024-01-27T14:52:04;7.40;1.00
3794;DHT22;1912;51.358;12.282;2024-01-27T14:54:31;7.30;1.00
3794;DHT22;1912;51.358;12.282;2024-01-27T14:56:56;7.20;1.00
3794;DHT22;1912;51.358;12.282;2024-01-27T14:59:22;7.20;1.00
3794;DHT22;1912;51.358;12.282;2024-01-27T15:01:48;7.10;1.00
3794;DHT22;1912;51.358;12.282;2024-01-27T15:04:15;7.00;1.00
3794;DHT22;1912;51.358;12.282;2024-01-27T15:06:40;7.00;1.00
3794;DHT22;1912;51.358;12.282;2024-01-27T15:09:06;6.90;1.00
3794;DHT22;1912;51.358;12.282;2024-01-27T15:11:32;6.80;1.00
3794;DHT22;1912;51.358;12.282;2024-01-27T15:13:59;6.80;1.00
3794;DHT22;1912;51.358;12.282;2024-01-27T15:16:25;6.70;1.00
3794;DHT22;1912;51.358;12.282;2024-01-27T15:18:52;6.70;1.00
3794;DHT22;1912;51.358;12.282;2024-01-27T15:21:17;6.70;1.00
3794;DHT22;1912;51.358;12.282;2024-01-27T15:23:43;6.60;1.00
3794;DHT22;1912;51.358;12.282;2024-01-27T15:26:10;6.50;1.00
3794;DHT22;1912;51.358;12.282;2024-01-27T15:28:36;6.40;1.00
3794;DHT22;1912;51.358;12.282;2024-01-27T15:31:02;6.40;1.00
3794;DHT22;1912;51.358;12.282;2024-01-27T15:33:27;6.30;1.00
3794;DHT22;1912;51.358;12.282;2024-01-27T15:35:53;6.30;1.00
3794;DHT22;1912;51.358;12.282;2024-01-27T15:38:19;6.20;1.00
3794;DHT22;1912;51.358;12.282;2024-01-27T15:40:44;6.20;1.00
3794;DHT22;1912;51.358;12.282;2024-01-27T15:43:10;6.10;1.00
3794;DHT22;1912;51.358;12.282;2024-01-27T15:45:36;6.10;1.00
3794;DHT22;1912;51.358;12.282;2024-01-27T15:48:02;6.00;1.00
3794;DHT22;1912;51.358;12.282;2024-01-27T15:50:27;5.90;1.00
3794;DHT22;1912;51.358;12.282;2024-01-27T15:52:56;5.80;1.00
3794;DHT22;1912;51.358;12.282;2024-01-27T15:55:25;5.70;1.00
3794;DHT22;1912;51.358;12.282;2024-01-27T15:57:52;5.70;1.00
3794;DHT22;1912;51.358;12.282;2024-01-27T16:00:18;5.60;1.00
3794;DHT22;1912;51.358;12.282;2024-01-27T16:02:44;5.50;1.00
3794;DHT22;1912;51.358;12.282;2024-01-27T16:05:10;5.40;1.00
3794;DHT22;1912;51.358;12.282;2024-01-27T16:07:35;5.40;1.00
3794;DHT22;1912;51.358;12.282;2024-01-27T16:10:01;5.30;1.00
3794;DHT22;1912;51.358;12.282;2024-01-27T16:12:30;5.30;1.00
3794;DHT22;1912;51.358;12.282;2024-01-27T16:14:56;5.30;1.00
3794;DHT22;1912;51.358;12.282;2024-01-27T16:17:22;5.20;1.00
3794;DHT22;1912;51.358;12.282;2024-01-27T16:19:48;5.20;1.00
3794;DHT22;1912;51.358;12.282;2024-01-27T16:22:14;5.10;1.00
3794;DHT22;1912;51.358;12.282;2024-01-27T16:24:42;5.00;1.00
3794;DHT22;1912;51.358;12.282;2024-01-27T16:27:11;5.00;1.00
3794;DHT22;1912;51.358;12.282;2024-01-27T16:29:36;5.00;1.00
3794;DHT22;1912;51.358;12.282;2024-01-27T16:32:02;4.90;1.00
3794;DHT22;1912;51.358;12.282;2024-01-27T16:34:28;4.90;1.00
3794;DHT22;1912;51.358;12.282;2024-01-27T16:36:54;4.80;1.00
3794;DHT22;1912;51.358;12.282;2024-01-27T16:39:19;4.80;1.00
3794;DHT22;1912;51.358;12.282;2024-01-27T16:41:45;4.80;1.00
3794;DHT22;1912;51.358;12.282;2024-01-27T16:44:11;4.80;1.00
3794;DHT22;1912;51.358;12.282;2024-01-27T16:46:37;4.80;1.00
3794;DHT22;1912;51.358;12.282;2024-01-27T16:49:03;4.70;1.00
3794;DHT22;1912;51.358;12.282;2024-01-27T16:51:28;4.60;1.00
3794;DHT22;1912;51.358;12.282;2024-01-27T16:53:54;4.40;1.00
3794;DHT22;1912;51.358;12.282;2024-01-27T16:56:20;4.30;1.00
3794;DHT22;1912;51.358;12.282;2024-01-27T16:58:45;4.30;1.00
3794;DHT22;1912;51.358;12.282;2024-01-27T17:01:15;4.20;1.00
3794;DHT22;1912;51.358;12.282;2024-01-27T17:03:41;4.30;1.00
3794;DHT22;1912;51.358;12.282;2024-01-27T17:06:07;4.20;1.00
3794;DHT22;1912;51.358;12.282;2024-01-27T17:08:33;4.10;1.00
3794;DHT22;1912;51.358;12.282;2024-01-27T17:10:59;4.10;1.00
3794;DHT22;1912;51.358;12.282;2024-01-27T17:13:25;4.10;1.00
3794;DHT22;1912;51.358;12.282;2024-01-27T17:15:50;4.00;1.00
3794;DHT22;1912;51.358;12.282;2024-01-27T17:18:18;3.90;1.00
3794;DHT22;1912;51.358;12.282;2024-01-27T17:20:44;3.80;1.00
3794;DHT22;1912;51.358;12.282;2024-01-27T17:23:10;3.80;1.00
3794;DHT22;1912;51.358;12.282;2024-01-27T17:25:35;3.80;1.00
3794;DHT22;1912;51.358;12.282;2024-01-27T17:28:01;3.70;1.00
3794;DHT22;1912;51.358;12.282;2024-01-27T17:30:27;3.80;1.00
3794;DHT22;1912;51.358;12.282;2024-01-27T17:32:53;3.80;1.00
3794;DHT22;1912;51.358;12.282;2024-01-27T17:35:18;3.70;1.00
3794;DHT22;1912;51.358;12.282;2024-01-27T17:37:44;3.70;1.00
3794;DHT22;1912;51.358;12.282;2024-01-27T17:40:10;3.60;1.00
3794;DHT22;1912;51.358;12.282;2024-01-27T17:42:36;3.60;1.00
3794;DHT22;1912;51.358;12.282;2024-01-27T17:45:02;3.60;1.00
3794;DHT22;1912;51.358;12.282;2024-01-27T17:47:29;3.60;1.00
3794;DHT22;1912;51.358;12.282;2024-01-27T17:49:55;3.50;1.00
3794;DHT22;1912;51.358;12.282;2024-01-27T17:52:21;3.50;1.00
3794;DHT22;1912;51.358;12.282;2024-01-27T17:54:47;3.50;1.00
3794;DHT22;1912;51.358;12.282;2024-01-27T17:57:12;3.50;1.00
3794;DHT22;1912;51.358;12.282;2024-01-27T17:59:39;3.50;1.00
3794;DHT22;1912;51.358;12.282;2024-01-27T18:02:06;3.50;1.00
3794;DHT22;1912;51.358;12.282;2024-01-27T18:04:31;3.40;1.00
3794;DHT22;1912;51.358;12.282;2024-01-27T18:06:58;3.40;1.00
3794;DHT22;1912;51.358;12.282;2024-01-27T18:09:25;3.30;1.00
3794;DHT22;1912;51.358;12.282;2024-01-27T18:11:51;3.30;1.00
3794;DHT22;1912;51.358;12.282;2024-01-27T18:14:17;3.20;1.00
3794;DHT22;1912;51.358;12.282;2024-01-27T18:16:42;3.20;1.00
3794;DHT22;1912;51.358;12.282;2024-01-27T18:19:09;3.20;1.00
3794;DHT22;1912;51.358;12.282;2024-01-27T18:21:37;3.20;1.00
3794;DHT22;1912;51.358;12.282;2024-01-27T18:24:03;3.10;1.00
3794;DHT22;1912;51.358;12.282;2024-01-27T18:26:29;2.90;1.00
3794;DHT22;1912;51.358;12.282;2024-01-27T18:28:55;2.80;1.00
3794;DHT22;1912;51.358;12.282;2024-01-27T18:31:20;2.70;1.00
3794;DHT22;1912;51.358;12.282;2024-01-27T18:33:46;2.70;1.00
3794;DHT22;1912;51.358;12.282;2024-01-27T18:36:17;2.70;1.00
3794;DHT22;1912;51.358;12.282;2024-01-27T18:38:43;2.70;1.00
3794;DHT22;1912;51.358;12.282;2024-01-27T18:41:12;2.70;1.00
3794;DHT22;1912;51.358;12.282;2024-01-27T18:43:38;2.70;1.00
3794;DHT22;1912;51.358;12.282;2024-01-27T18:46:04;2.70;1.00
3794;DHT22;1912;51.358;12.282;2024-01-27T18:48:36;2.70;1.00
3794;DHT22;1912;51.358;12.282;2024-01-27T18:51:03;2.60;1.00
3794;DHT22;1912;51.358;12.282;2024-01-27T18:53:31;2.60;1.00
3794;DHT22;1912;51.358;12.282;2024-01-27T18:56:00;2.40;1.00
3794;DHT22;1912;51.358;12.282;2024-01-27T18:58:29;2.40;1.00
3794;DHT22;1912;51.358;12.282;2024-01-27T19:00:56;2.40;1.00
3794;DHT22;1912;51.358;12.282;2024-01-27T19:03:22;2.40;1.00
3794;DHT22;1912;51.358;12.282;2024-01-27T19:05:48;2.40;1.00
3794;DHT22;1912;51.358;12.282;2024-01-27T19:08:14;2.40;1.00
3794;DHT22;1912;51.358;12.282;2024-01-27T19:10:40;2.50;1.00
3794;DHT22;1912;51.358;12.282;2024-01-27T19:13:08;2.40;1.00
3794;DHT22;1912;51.358;12.282;2024-01-27T19:15:34;2.40;1.00
3794;DHT22;1912;51.358;12.282;2024-01-27T19:17:59;2.30;1.00
3794;DHT22;1912;51.358;12.282;2024-01-27T19:20:25;2.20;1.00
3794;DHT22;1912;51.358;12.282;2024-01-27T19:22:51;2.20;1.00
3794;DHT22;1912;51.358;12.282;2024-01-27T19:25:17;2.20;1.00
3794;DHT22;1912;51.358;12.282;2024-01-27T19:27:42;2.20;1.00
3794;DHT22;1912;51.358;12.282;2024-01-27T19:30:09;2.20;1.00
3794;DHT22;1912;51.358;12.282;2024-01-27T19:32:35;2.20;1.00
3794;DHT22;1912;51.358;12.282;2024-01-27T19:35:00;2.20;1.00
3794;DHT22;1912;51.358;12.282;2024-01-27T19:37:27;2.20;1.00
3794;DHT22;1912;51.358;12.282;2024-01-27T19:39:52;2.20;1.00
3794;DHT22;1912;51.358;12.282;2024-01-27T19:42:18;2.10;1.00
3794;DHT22;1912;51.358;12.282;2024-01-27T19:44:44;2.00;1.00
3794;DHT22;1912;51.358;12.282;2024-01-27T19:47:09;2.00;1.00
3794;DHT22;1912;51.358;12.282;2024-01-27T19:49:35;1.90;1.00
3794;DHT22;1912;51.358;12.282;2024-01-27T19:52:06;2.00;1.00
3794;DHT22;1912;51.358;12.282;2024-01-27T19:54:35;1.90;1.00
3794;DHT22;1912;51.358;12.282;2024-01-27T19:57:00;2.00;1.00
3794;DHT22;1912;51.358;12.282;2024-01-27T19:59:26;2.00;1.00
3794;DHT22;1912;51.358;12.282;2024-01-27T20:01:52;1.90;1.00
3794;DHT22;1912;51.358;12.282;2024-01-27T20:04:18;1.90;1.00
3794;DHT22;1912;51.358;12.282;2024-01-27T20:06:43;1.90;1.00
3794;DHT22;1912;51.358;12.282;2024-01-27T20:09:09;2.00;1.00
3794;DHT22;1912;51.358;12.282;2024-01-27T20:11:35;1.80;1.00
3794;DHT22;1912;51.358;12.282;2024-01-27T20:14:01;1.70;1.00
3794;DHT22;1912;51.358;12.282;2024-01-27T20:16:26;1.80;1.00
3794;DHT22;1912;51.358;12.282;2024-01-27T20:18:52;1.80;1.00
3794;DHT22;1912;51.358;12.282;2024-01-27T20:21:21;1.70;1.00
3794;DHT22;1912;51.358;12.282;2024-01-27T20:23:47;1.70;1.00
3794;DHT22;1912;51.358;12.282;2024-01-27T20:26:12;1.70;1.00
3794;DHT22;1912;51.358;12.282;2024-01-27T20:28:38;1.70;1.00
3794;DHT22;1912;51.358;12.282;2024-01-27T20:31:04;1.70;1.00
3794;DHT22;1912;51.358;12.282;2024-01-27T20:33:29;1.60;1.00
3794;DHT22;1912;51.358;12.282;2024-01-27T20:35:55;1.60;1.00
3794;DHT22;1912;51.358;12.282;2024-01-27T20:38:21;1.60;1.00
3794;DHT22;1912;51.358;12.282;2024-01-27T20:40:48;1.50;1.00
3794;DHT22;1912;51.358;12.282;2024-01-27T20:43:14;1.50;1.00
3794;DHT22;1912;51.358;12.282;2024-01-27T20:45:41;1.50;1.00
3794;DHT22;1912;51.358;12.282;2024-01-27T20:48:06;1.50;1.00
3794;DHT22;1912;51.358;12.282;2024-01-27T20:50:33;1.50;1.00
3794;DHT22;1912;51.358;12.282;2024-01-27T20:52:59;1.50;1.00
3794;DHT22;1912;51.358;12.282;2024-01-27T20:55:25;1.40;1.00
3794;DHT22;1912;51.358;12.282;2024-01-27T20:57:51;1.40;1.00
3794;DHT22;1912;51.358;12.282;2024-01-27T21:00:16;1.20;1.00
3794;DHT22;1912;51.358;12.282;2024-01-27T21:02:42;1.20;1.00